Friday, October 24, 2014, 7:48 PM EDT

KMDT, Harrisburg International Airport

Location: Middletown, PA, United States Lat: 40.2
Local Time: 7:48 PM EDT (23:48 GMT) Lon: -76.767
Time Zone: US/Eastern Elev: 308 ft

Show me the last for .
Show Decoded

2014-10-24 18:56 METAR KMDT 242256Z 30007KT 10SM BKN220 14/04 A2988 RMK AO2 SLP119 T01440044 =
2014-10-24 17:56 METAR KMDT 242156Z 31009KT 10SM BKN220 16/03 A2987 =
2014-10-24 16:56 METAR KMDT 242056Z 29011KT 10SM BKN250 18/04 A2986 =
2014-10-24 15:56 METAR KMDT 241956Z 30012KT 10SM BKN250 18/02 A2986 RMK AO2 SLP110 T01780022 =
2014-10-24 14:56 METAR KMDT 241856Z 30014KT 10SM BKN250 18/02 A2986 RMK AO2 SLP113 T01780022 =
2014-10-24 13:56 METAR KMDT 241756Z 29011KT 10SM SCT250 18/03 A2988 RMK AO2 SLP118 T01830033
                 10189 20122 58020 =
2014-10-24 12:56 METAR KMDT 241656Z 29010KT 10SM CLR 18/04 A2990 =
2014-10-24 11:56 METAR KMDT 241556Z 30015KT 10SM CLR 17/05 A2992 RMK AO2 SLP132 T01720050 =
2014-10-24 10:56 METAR KMDT 241456Z 33012KT 10SM CLR 16/04 A2994 RMK AO2 SLP138 T01610044 50007 =
2014-10-24 09:56 METAR KMDT 241356Z 30013KT 10SM FEW042 14/05 A2995 RMK AO2 SLP141 T01390050 =
2014-10-24 08:56 METAR KMDT 241256Z 31013KT 10SM BKN040 13/06 A2994 =
2014-10-24 07:56 METAR KMDT 241156Z 31010KT 10SM FEW040 12/06 A2992 =
2014-10-24 06:56 METAR KMDT 241056Z 32013KT 10SM BKN038 13/06 A2992 RMK AO2 SLP131 T01280061 $ =
2014-10-24 05:56 METAR KMDT 240956Z 31010KT 10SM OVC037 13/06 A2991 =
2014-10-24 04:56 METAR KMDT 240856Z 33012KT 10SM BKN038 13/06 A2990 RMK AO2 SLP127 T01330056
                 53010 $ =
2014-10-24 03:56 METAR KMDT 240756Z 32015G19KT 10SM BKN040 13/06 A2989 =
2014-10-24 02:56 METAR KMDT 240656Z 32012KT 10SM BKN043 13/05 A2988 RMK AO2 SLP119 T01330050 $ =
2014-10-24 01:56 METAR KMDT 240556Z 32012G20KT 10SM BKN044 14/05 A2988 =
2014-10-24 00:56 METAR KMDT 240456Z 32014G21KT 10SM BKN048 14/04 A2988 =
2014-10-23 23:56 METAR KMDT 240356Z 32010KT 10SM OVC049 15/04 A2989 =
2014-10-23 22:56 METAR KMDT 240256Z 34009KT 10SM BKN050 15/05 A2989 RMK AO2 SLP124 T01500050
                 52005 $ =
2014-10-23 21:56 METAR KMDT 240156Z 34006KT 10SM OVC050 16/05 A2989 =
2014-10-23 20:56 METAR KMDT 240056Z 35006KT 10SM OVC050 15/06 A2988 =
2014-10-23 19:56 METAR KMDT 232356Z 36008KT 10SM OVC050 16/07 A2988 RMK AO2 PK WND 35026/2320
                 SLP119 T01560067 10161 20150 53019 =

Support USWX by starting your Amazon purchase here.